Latest Weather Observations for Bairnsdale

IDV60801

Issued at 11:31 am EST Tuesday 1 September 2015 (issued every 30 minutes, with the page automatically refreshed every 10 minutes)

About weather observations | Map of weather stations | Latest weather observations for VIC | Other Formats
Station Details ID: 085279 Name: BAIRNSDALE AIRPORT Lat: -37.88 Lon: 147.57 Height: 49.4 m
Data from the previous 72 hours. | See also: Recent months at Bairnsdale
Date/Time
EST
Temp
°C
App
Temp
°C
Dew
Point
Rel
Hum
%
Delta-T
°C
Wind Press
QNH
hPa
Press
MSL
hPa
Rain
since 9 am
mm
Dir
 
Spd
km/h
Gust
km/h
Spd
kts
Gust
kts
01/11:30am 12.4 8.6 3.9 56 3.8 NW 13 20 7 11 1016.6 1016.6 0.0
01/11:00am 11.5 8.3 4.9 64 3.0 NW 11 19 6 10 1016.8 1016.8 0.0
01/10:30am 10.2 6.9 4.6 68 2.5 W 11 15 6 8 1016.9 1016.9 0.0
01/10:00am 10.8 8.2 6.0 72 2.2 NW 9 15 5 8 1016.9 1016.9 0.0
01/09:30am 9.9 7.3 6.1 77 1.8 NW 9 13 5 7 1017.1 1017.2 0.0
01/09:00am 8.9 6.7 7.8 93 0.5 NW 9 11 5 6 1017.2 1017.3 0.0
01/08:30am 7.8 5.5 7.5 98 0.1 NW 9 11 5 6 1017.4 1017.5 0.0
01/08:00am 6.8 4.4 6.8 100 0.0 NW 9 13 5 7 1017.4 1017.5 0.0
01/07:30am 6.0 3.0 6.0 100 0.0 NW 11 13 6 7 1017.2 1017.3 0.0
01/07:00am 5.6 2.5 5.6 100 0.0 NW 11 13 6 7 1017.1 1017.2 0.0
01/06:30am 5.3 1.8 5.3 100 0.0 NW 13 15 7 8 1016.9 1017.0 0.0
01/06:00am 5.4 2.3 5.4 100 0.0 NW 11 15 6 8 1016.8 1016.9 0.0
01/05:30am 4.3 1.3 4.3 100 0.0 WNW 9 11 5 6 1016.8 1016.9 0.0
01/05:00am 3.7 0.2 3.7 100 0.0 NW 11 13 6 7 1016.8 1016.9 0.0
01/04:30am 4.6 1.7 4.6 100 0.0 WNW 9 11 5 6 1016.8 1016.9 0.0
01/04:00am 4.3 1.0 4.3 100 0.0 WNW 11 13 6 7 1016.8 1016.9 0.0
01/03:30am 4.9 1.7 4.9 100 0.0 WNW 11 13 6 7 1016.8 1016.9 0.0
01/03:00am 5.1 1.9 5.1 100 0.0 WNW 11 11 6 6 1017.0 1017.1 0.0
01/02:30am 4.6 1.7 4.6 100 0.0 NW 9 11 5 6 1017.2 1017.3 0.0
01/02:00am 5.4 2.7 5.4 100 0.0 W 9 11 5 6 1017.4 1017.5 0.0
01/01:30am 5.5 2.4 5.4 99 0.0 NW 11 13 6 7 1017.7 1017.8 0.0
01/01:00am 5.7 3.0 5.4 98 0.1 NW 9 13 5 7 1017.8 1017.9 0.0
01/12:30am 6.3 3.7 6.0 98 0.1 NW 9 11 5 6 1018.0 1018.1 0.0
01/12:00am 6.1 3.0 5.5 96 0.3 NW 11 13 6 7 1018.0 1018.1 0.0
 
Date/Time
EST
Temp
°C
App
Temp
°C
Dew
Point
Rel
Hum
%
Delta-T
°C
Wind Press
QNH
hPa
Press
MSL
hPa
Rain
since 9 am
mm
Dir
 
Spd
km/h
Gust
km/h
Spd
kts
Gust
kts
31/11:30pm 6.7 3.7 6.1 96 0.3 NW 11 13 6 7 1018.2 1018.3 0.0
31/11:00pm 6.6 3.2 6.0 96 0.3 WNW 13 15 7 8 1018.3 1018.4 0.0
31/10:30pm 7.3 4.4 6.4 94 0.4 NW 11 15 6 8 1018.4 1018.5 0.0
31/10:00pm 7.9 5.1 6.8 93 0.5 NW 11 15 6 8 1018.6 1018.7 0.0
31/09:30pm 8.3 5.5 6.9 91 0.7 WNW 11 13 6 7 1018.7 1018.8 0.0
31/09:00pm 8.3 5.9 6.9 91 0.6 NW 9 13 5 7 1018.6 1018.7 0.0
31/08:30pm 8.6 7.2 7.1 90 0.7 SSE 4 9 2 5 1018.6 1018.7 0.0
31/08:00pm 8.5 7.1 7.3 92 0.6 NNW 4 7 2 4 1018.4 1018.5 0.0
31/07:30pm 8.5 6.4 6.8 89 0.8 SW 7 9 4 5 1018.4 1018.5 0.0
31/07:00pm 9.7 7.4 7.3 85 1.1 S 9 13 5 7 1018.2 1018.3 0.0
31/06:30pm 10.0 7.7 7.4 84 1.2 S 9 11 5 6 1018.2 1018.3 0.0
31/06:00pm 10.1 7.3 7.0 81 1.5 SSE 11 15 6 8 1018.1 1018.2 0.0
31/05:30pm 10.4 7.1 6.5 77 1.8 S 13 17 7 9 1018.2 1018.3 0.0
31/05:00pm 10.8 7.5 6.2 73 2.1 S 13 17 7 9 1018.1 1018.2 0.0
31/04:30pm 11.3 8.2 5.6 68 2.6 S 11 15 6 8 1017.9 1018.0 0.0
31/04:00pm 11.7 8.3 5.8 67 2.7 S 13 19 7 10 1017.9 1018.0 0.0
31/03:30pm 12.6 9.1 5.5 62 3.3 SSW 13 17 7 9 1017.8 1017.9 0.0
31/03:00pm 12.2 8.6 4.9 61 3.3 SSW 13 19 7 10 1018.0 1018.1 0.0
31/02:30pm 12.5 8.9 5.2 61 3.4 SSW 13 20 7 11 1018.2 1018.3 0.0
31/02:00pm 12.1 8.1 4.8 61 3.3 SSW 15 20 8 11 1018.3 1018.4 0.0
31/01:30pm 11.4 6.9 4.2 61 3.2 SW 17 22 9 12 1018.6 1018.7 0.0
31/01:00pm 12.2 8.2 4.9 61 3.3 SW 15 20 8 11 1018.8 1018.9 0.0
31/12:30pm 11.7 8.0 4.7 62 3.2 SW 13 20 7 11 1019.2 1019.3 0.0
31/12:00pm 12.5 8.8 4.5 58 3.6 WSW 13 20 7 11 1019.6 1019.7 0.0
31/11:30am 11.2 7.1 4.4 63 3.1 WSW 15 19 8 10 1019.8 1019.9 0.0
31/11:00am 10.7 6.1 3.7 62 3.1 WSW 17 24 9 13 1020.2 1020.3 0.0
31/10:30am 11.1 6.7 4.6 64 2.9 W 17 24 9 13 1020.4 1020.5 0.0
31/10:00am 10.0 5.5 4.0 66 2.6 W 17 24 9 13 1020.5 1020.6 0.0
31/09:30am 9.7 6.0 4.3 69 2.4 W 13 20 7 11 1020.7 1020.8 0.0
31/09:00am 8.8 4.9 5.2 78 1.6 W 15 19 8 10 1020.8 1020.9 0.0
31/08:30am 7.2 3.6 5.0 86 1.0 WNW 13 17 7 9 1020.9 1021.0 0.0
31/08:00am 5.5 1.8 4.5 93 0.4 NW 13 17 7 9 1020.9 1021.0 0.0
31/07:30am 4.3 0.6 4.2 99 0.0 NW 13 17 7 9 1020.7 1020.8 0.0
31/07:00am 3.4 -0.9 3.3 99 0.0 NW 15 17 8 9 1020.6 1020.7 0.0
31/06:30am 3.4 -0.5 3.3 99 0.0 NW 13 17 7 9 1020.4 1020.5 0.0
31/06:00am 3.6 -0.3 3.5 99 0.0 NW 13 17 7 9 1020.3 1020.4 0.0
31/05:30am 3.3 -0.6 3.2 99 0.0 NW 13 15 7 8 1020.3 1020.4 0.0
31/05:00am 3.5 -0.1 3.1 97 0.2 NW 11 13 6 7 1020.3 1020.4 0.0
31/04:30am 4.2 0.4 3.9 98 0.1 WNW 13 15 7 8 1020.3 1020.4 0.0
31/04:00am 3.7 -0.2 3.3 97 0.2 NW 13 15 7 8 1020.2 1020.3 0.0
31/03:30am 3.8 0.2 2.9 94 0.4 NW 11 13 6 7 1020.3 1020.4 0.0
31/03:00am 5.0 1.6 4.1 94 0.4 WNW 11 13 6 7 1020.5 1020.6 0.0
31/02:30am 5.4 1.7 4.4 93 0.4 WNW 13 15 7 8 1020.9 1021.0 0.0
31/02:00am 6.3 3.6 5.6 95 0.3 NW 9 13 5 7 1021.2 1021.3 0.0
31/01:30am 7.1 4.6 6.4 95 0.3 NW 9 11 5 6 1021.5 1021.6 0.0
31/01:00am 7.1 4.9 6.4 95 0.3 NW 7 9 4 5 1021.7 1021.8 0.0
31/12:30am 7.4 5.1 5.9 90 0.7 W 7 9 4 5 1021.9 1022.0 0.0
31/12:00am 7.7 4.7 6.2 90 0.7 WSW 11 13 6 7 1022.1 1022.2 0.0
 
Date/Time
EST
Temp
°C
App
Temp
°C
Dew
Point
Rel
Hum
%
Delta-T
°C
Wind Press
QNH
hPa
Press
MSL
hPa
Rain
since 9 am
mm
Dir
 
Spd
km/h
Gust
km/h
Spd
kts
Gust
kts
30/11:30pm 7.9 4.6 6.2 89 0.8 WSW 13 17 7 9 1022.4 1022.5 0.0
30/11:00pm 7.8 4.9 6.3 90 0.7 WSW 11 17 6 9 1022.5 1022.6 0.0
30/10:30pm 7.2 4.3 6.5 95 0.3 WNW 11 13 6 7 1022.7 1022.8 0.0
30/10:00pm 7.0 4.5 6.4 96 0.3 WNW 9 11 5 6 1022.8 1022.9 0.0
30/09:30pm 6.5 4.2 5.9 96 0.3 NW 7 7 4 4 1022.8 1022.9 0.0
30/09:00pm 6.4 5.5 6.0 97 0.2 CALM 0 0 0 0 1022.8 1022.9 0.0
30/08:30pm 6.4 5.5 6.0 97 0.2 CALM 0 0 0 0 1022.6 1022.7 0.0
30/08:00pm 6.3 5.4 6.0 98 0.1 CALM 0 0 0 0 1022.5 1022.6 0.0
30/07:30pm 5.7 4.6 5.0 95 0.3 CALM 0 0 0 0 1022.4 1022.5 0.0
30/07:00pm 5.9 4.2 4.1 88 0.8 SE 2 6 1 3 1022.4 1022.5 0.0
30/06:30pm 8.4 5.9 5.0 79 1.5 SE 7 9 4 5 1022.2 1022.3 0.0
30/06:00pm 8.7 5.9 5.1 78 1.6 ESE 9 11 5 6 1021.9 1022.0 0.0
30/05:30pm 9.8 7.1 5.8 76 1.8 ESE 9 11 5 6 1021.7 1021.8 0.0
30/05:00pm 11.0 7.9 5.7 70 2.4 SE 11 15 6 8 1021.7 1021.8 0.0
30/04:30pm 11.4 8.2 5.3 66 2.8 SSE 11 15 6 8 1021.6 1021.7 0.0
30/04:00pm 11.8 8.2 5.0 63 3.1 SSE 13 19 7 10 1021.8 1021.9 0.0
30/03:30pm 12.3 8.9 5.7 64 3.1 S 13 19 7 10 1021.9 1022.0 0.0
30/03:00pm 12.4 8.9 5.3 62 3.3 SSW 13 20 7 11 1022.1 1022.2 0.0
30/02:30pm 11.6 7.5 4.1 60 3.4 SSW 15 20 8 11 1022.1 1022.2 0.0
30/02:00pm 11.4 8.0 4.2 61 3.2 S 11 17 6 9 1022.3 1022.4 0.0
30/01:30pm 12.0 8.0 4.7 61 3.3 SSW 15 20 8 11 1022.4 1022.5 0.0
30/01:00pm 11.5 7.1 4.7 63 3.1 SSW 17 20 9 11 1022.6 1022.7 0.0
30/12:30pm 12.5 7.8 6.1 65 3.0 SSW 20 28 11 15 1022.7 1022.8 0.0
30/12:00pm 11.6 6.3 5.0 64 3.0 SW 22 32 12 17 1023.1 1023.2 0.0
30/11:30am 11.2 6.3 5.3 67 2.7 SW 20 28 11 15 1023.6 1023.7 0.0
30/11:00am 10.9 5.2 4.8 66 2.8 SW 24 32 13 17 1023.9 1024.0 0.0
30/10:30am 11.3 5.9 6.2 71 2.4 SW 24 32 13 17 1024.0 1024.1 0.0
30/10:00am 11.0 6.4 6.7 75 2.0 SW 20 24 11 13 1024.0 1024.1 0.0
30/09:30am 10.4 6.1 7.1 80 1.6 SW 19 26 10 14 1024.0 1024.1 0.0
30/09:00am 9.6 5.8 7.4 86 1.0 WSW 17 24 9 13 1024.1 1024.2 1.2
30/08:30am 8.9 5.2 7.8 93 0.5 WSW 17 22 9 12 1023.9 1024.0 1.2
30/08:00am 7.4 3.5 7.0 97 0.2 W 17 20 9 11 1023.8 1023.9 1.2
30/07:30am 7.3 4.2 7.2 99 0.0 W 13 19 7 10 1023.5 1023.6 1.2
30/07:00am 6.9 3.7 6.9 100 0.0 W 13 19 7 10 1023.3 1023.4 1.2
30/06:30am 6.4 2.7 6.4 100 0.0 WSW 15 19 8 10 1023.2 1023.3 1.2
30/06:00am 6.6 3.0 6.6 100 0.0 W 15 19 8 10 1022.9 1023.0 1.2
30/05:30am 6.9 3.3 6.9 100 0.0 W 15 20 8 11 1022.7 1022.8 1.2
30/05:00am 7.2 3.7 7.2 100 0.0 W 15 20 8 11 1022.6 1022.7 1.2
30/04:30am 7.1 4.0 7.1 100 0.0 W 13 17 7 9 1022.4 1022.5 1.2
30/04:00am 7.7 4.7 7.7 100 0.0 W 13 19 7 10 1022.3 1022.4 1.2
30/03:30am 7.7 4.7 7.6 99 0.0 W 13 19 7 10 1022.2 1022.3 1.2
30/03:00am 7.9 4.1 7.6 98 0.1 W 17 22 9 12 1022.3 1022.4 1.2
30/02:38am 8.0 3.9 7.7 98 0.1 WSW 19 24 10 13 1022.5 1022.6 1.0
30/02:30am 8.0 4.2 7.6 97 0.2 SW 17 22 9 12 1022.6 1022.7 0.8
30/02:24am 8.1 4.2 7.3 95 0.4 SW 17 22 9 12 1022.7 1022.8 0.8
30/02:00am 8.2 3.7 6.8 91 0.6 W 20 28 11 15 1022.5 1022.6 0.4
30/01:30am 8.0 3.4 6.5 90 0.7 W 20 26 11 14 1022.7 1022.8 0.4
30/01:00am 8.4 3.9 6.9 90 0.7 W 20 28 11 15 1022.8 1022.9 0.4
30/12:30am 8.5 4.2 7.0 90 0.7 W 19 26 10 14 1023.1 1023.2 0.4
30/12:00am 8.5 4.0 6.8 89 0.8 W 20 28 11 15 1023.0 1023.1 0.4
 
Date/Time
EST
Temp
°C
App
Temp
°C
Dew
Point
Rel
Hum
%
Delta-T
°C
Wind Press
QNH
hPa
Press
MSL
hPa
Rain
since 9 am
mm
Dir
 
Spd
km/h
Gust
km/h
Spd
kts
Gust
kts
29/11:30pm 8.1 3.7 6.7 91 0.6 W 19 26 10 14 1023.0 1023.1 0.4
29/11:00pm 7.9 3.5 6.7 92 0.6 W 19 26 10 14 1023.2 1023.3 0.4
29/10:30pm 8.0 3.6 6.6 91 0.6 W 19 26 10 14 1023.3 1023.4 0.4
29/10:00pm 8.1 3.7 6.7 91 0.6 W 19 24 10 13 1023.3 1023.4 0.4
29/09:30pm 8.5 4.0 6.8 89 0.8 W 20 26 11 14 1023.3 1023.4 0.4
29/09:00pm 8.8 4.3 6.9 88 0.9 W 20 28 11 15 1023.1 1023.2 0.4
29/08:30pm 9.2 4.4 7.3 88 0.9 W 22 28 12 15 1022.9 1023.0 0.4
29/08:00pm 9.4 4.6 7.3 87 1.0 W 22 28 12 15 1022.8 1022.9 0.4
29/07:30pm 9.6 5.2 7.5 87 1.0 W 20 28 11 15 1022.8 1022.9 0.4
29/07:00pm 9.6 5.2 7.4 86 1.0 W 20 28 11 15 1022.6 1022.7 0.4
29/06:30pm 9.8 5.0 7.2 84 1.2 W 22 30 12 16 1022.1 1022.2 0.4
29/06:00pm 10.4 6.0 7.3 81 1.5 W 20 32 11 17 1021.7 1021.8 0.4
29/05:30pm 11.0 6.7 7.9 81 1.5 WSW 20 32 11 17 1021.6 1021.7 0.4
29/05:00pm 10.8 6.5 7.7 81 1.5 W 20 32 11 17 1021.3 1021.4 0.4
29/04:30pm 11.9 6.5 8.0 77 1.9 WSW 26 35 14 19 1021.1 1021.2 0.4
29/04:00pm 11.3 6.4 8.5 83 1.4 WSW 24 35 13 19 1021.1 1021.2 0.4
29/03:30pm 10.9 6.3 8.3 84 1.3 W 22 28 12 15 1021.1 1021.2 0.4
29/03:00pm 11.6 5.5 8.1 79 1.7 WSW 30 43 16 23 1021.0 1021.1 0.2
29/02:30pm 11.5 5.1 6.8 73 2.2 W 30 43 16 23 1020.9 1021.0 0.2
29/02:00pm 11.4 5.0 6.9 74 2.1 W 30 41 16 22 1021.1 1021.2 0.2
29/01:41pm 11.1 4.2 6.6 74 2.1 W 32 50 17 27 1021.2 1021.3 0.2
29/01:30pm 11.0 3.6 6.6 74 2.1 WSW 35 52 19 28 1021.2 1021.3 0.2
29/01:00pm 10.6 3.7 6.4 75 2.0 W 32 54 17 29 1021.5 1021.6 0.2
29/12:31pm 10.6 3.5 6.2 74 2.1 W 33 56 18 30 1021.7 1021.8 0.2
29/12:30pm 10.5 3.3 6.1 74 2.0 W 33 48 18 26 1021.7 1021.8 0.2
29/12:00pm 10.2 2.2 5.6 73 2.1 W 37 52 20 28 1022.1 1022.2 0.2
29/11:37am 10.6 3.1 6.2 74 2.1 W 35 54 19 29 1022.3 1022.4 0.2

Other Formats:

Comma delimited format used in spreadsheet applications
http://www.bom.gov.au/fwo/IDV60801/IDV60801.94912.axf

JavaScript Object Notation format (JSON) in row-major order
http://www.bom.gov.au/fwo/IDV60801/IDV60801.94912.json